sensor_id;sensor_type;location;lat;lon;timestamp;P1;durP1;ratioP1;P2;durP2;ratioP2
70337;SDS011;57757;53.198;19.646;2023-12-22T00:00:47;20.80;;;2.80;;
70337;SDS011;57757;53.198;19.646;2023-12-22T00:03:34;12.50;;;2.30;;
70337;SDS011;57757;53.198;19.646;2023-12-22T00:06:00;23.90;;;4.00;;
70337;SDS011;57757;53.198;19.646;2023-12-22T00:08:27;16.70;;;3.50;;
70337;SDS011;57757;53.198;19.646;2023-12-22T00:10:53;21.50;;;3.80;;
70337;SDS011;57757;53.198;19.646;2023-12-22T00:13:19;18.00;;;2.60;;
70337;SDS011;57757;53.198;19.646;2023-12-22T00:15:45;22.70;;;4.00;;
70337;SDS011;57757;53.198;19.646;2023-12-22T00:18:11;24.60;;;3.40;;
70337;SDS011;57757;53.198;19.646;2023-12-22T00:20:38;15.80;;;2.80;;
70337;SDS011;57757;53.198;19.646;2023-12-22T00:23:04;20.30;;;2.70;;
70337;SDS011;57757;53.198;19.646;2023-12-22T00:25:30;15.30;;;2.70;;
70337;SDS011;57757;53.198;19.646;2023-12-22T00:27:56;20.90;;;3.00;;
70337;SDS011;57757;53.198;19.646;2023-12-22T00:30:22;15.80;;;2.70;;
70337;SDS011;57757;53.198;19.646;2023-12-22T00:32:50;13.60;;;2.20;;
70337;SDS011;57757;53.198;19.646;2023-12-22T00:35:16;19.80;;;3.00;;
70337;SDS011;57757;53.198;19.646;2023-12-22T00:37:42;14.10;;;2.80;;
70337;SDS011;57757;53.198;19.646;2023-12-22T00:40:08;18.10;;;3.20;;
70337;SDS011;57757;53.198;19.646;2023-12-22T00:42:35;18.80;;;3.30;;
70337;SDS011;57757;53.198;19.646;2023-12-22T00:45:01;18.10;;;2.80;;
70337;SDS011;57757;53.198;19.646;2023-12-22T00:47:28;19.80;;;3.30;;
70337;SDS011;57757;53.198;19.646;2023-12-22T00:49:54;17.00;;;3.60;;
70337;SDS011;57757;53.198;19.646;2023-12-22T00:52:20;15.30;;;2.80;;
70337;SDS011;57757;53.198;19.646;2023-12-22T00:54:46;18.70;;;3.60;;
70337;SDS011;57757;53.198;19.646;2023-12-22T00:57:13;21.90;;;3.10;;
70337;SDS011;57757;53.198;19.646;2023-12-22T00:59:40;18.60;;;2.80;;
70337;SDS011;57757;53.198;19.646;2023-12-22T01:02:14;16.50;;;2.80;;
70337;SDS011;57757;53.198;19.646;2023-12-22T01:04:43;20.50;;;2.90;;
70337;SDS011;57757;53.198;19.646;2023-12-22T01:07:10;16.30;;;3.20;;
70337;SDS011;57757;53.198;19.646;2023-12-22T01:09:37;19.60;;;2.70;;
70337;SDS011;57757;53.198;19.646;2023-12-22T01:12:03;14.80;;;3.10;;
70337;SDS011;57757;53.198;19.646;2023-12-22T01:14:31;18.60;;;2.70;;
70337;SDS011;57757;53.198;19.646;2023-12-22T01:16:57;21.60;;;3.50;;
70337;SDS011;57757;53.198;19.646;2023-12-22T01:19:25;14.70;;;2.20;;
70337;SDS011;57757;53.198;19.646;2023-12-22T01:21:51;16.90;;;2.80;;
70337;SDS011;57757;53.198;19.646;2023-12-22T01:24:18;16.30;;;2.70;;
70337;SDS011;57757;53.198;19.646;2023-12-22T01:26:45;19.30;;;3.00;;
70337;SDS011;57757;53.198;19.646;2023-12-22T01:29:11;20.90;;;3.30;;
70337;SDS011;57757;53.198;19.646;2023-12-22T01:31:37;20.00;;;3.20;;
70337;SDS011;57757;53.198;19.646;2023-12-22T01:34:03;15.10;;;2.30;;
70337;SDS011;57757;53.198;19.646;2023-12-22T01:36:29;18.80;;;2.90;;
70337;SDS011;57757;53.198;19.646;2023-12-22T01:38:55;18.40;;;2.80;;
70337;SDS011;57757;53.198;19.646;2023-12-22T01:41:21;16.20;;;2.90;;
70337;SDS011;57757;53.198;19.646;2023-12-22T01:43:47;19.50;;;3.00;;
70337;SDS011;57757;53.198;19.646;2023-12-22T01:46:14;20.20;;;3.10;;
70337;SDS011;57757;53.198;19.646;2023-12-22T01:48:40;15.60;;;2.60;;
70337;SDS011;57757;53.198;19.646;2023-12-22T01:51:07;17.00;;;2.60;;
70337;SDS011;57757;53.198;19.646;2023-12-22T01:53:33;15.10;;;2.70;;
70337;SDS011;57757;53.198;19.646;2023-12-22T01:56:05;18.10;;;2.50;;
70337;SDS011;57757;53.198;19.646;2023-12-22T01:58:32;16.50;;;2.70;;
70337;SDS011;57757;53.198;19.646;2023-12-22T02:01:02;14.20;;;2.60;;
70337;SDS011;57757;53.198;19.646;2023-12-22T02:03:28;13.50;;;1.70;;
70337;SDS011;57757;53.198;19.646;2023-12-22T02:05:55;9.20;;;2.00;;
70337;SDS011;57757;53.198;19.646;2023-12-22T02:08:22;11.60;;;2.50;;
70337;SDS011;57757;53.198;19.646;2023-12-22T02:10:52;9.30;;;2.10;;
70337;SDS011;57757;53.198;19.646;2023-12-22T02:13:18;13.20;;;2.30;;
70337;SDS011;57757;53.198;19.646;2023-12-22T02:15:45;14.10;;;2.40;;
70337;SDS011;57757;53.198;19.646;2023-12-22T02:18:17;14.90;;;2.40;;
70337;SDS011;57757;53.198;19.646;2023-12-22T02:20:47;11.40;;;2.20;;
70337;SDS011;57757;53.198;19.646;2023-12-22T02:23:15;15.80;;;2.40;;
70337;SDS011;57757;53.198;19.646;2023-12-22T02:25:41;16.50;;;2.70;;
70337;SDS011;57757;53.198;19.646;2023-12-22T02:28:07;15.40;;;2.20;;
70337;SDS011;57757;53.198;19.646;2023-12-22T02:30:42;14.40;;;2.30;;
70337;SDS011;57757;53.198;19.646;2023-12-22T02:33:20;13.70;;;2.40;;
70337;SDS011;57757;53.198;19.646;2023-12-22T02:35:48;12.00;;;2.30;;
70337;SDS011;57757;53.198;19.646;2023-12-22T02:38:16;17.30;;;2.50;;
70337;SDS011;57757;53.198;19.646;2023-12-22T02:40:44;14.50;;;2.00;;
70337;SDS011;57757;53.198;19.646;2023-12-22T02:43:10;12.70;;;2.50;;
70337;SDS011;57757;53.198;19.646;2023-12-22T02:45:37;14.40;;;2.30;;
70337;SDS011;57757;53.198;19.646;2023-12-22T02:48:03;17.00;;;2.90;;
70337;SDS011;57757;53.198;19.646;2023-12-22T02:50:31;15.90;;;2.90;;
70337;SDS011;57757;53.198;19.646;2023-12-22T02:52:57;13.10;;;2.60;;
70337;SDS011;57757;53.198;19.646;2023-12-22T02:55:23;14.40;;;2.30;;
70337;SDS011;57757;53.198;19.646;2023-12-22T02:57:49;17.30;;;2.50;;
70337;SDS011;57757;53.198;19.646;2023-12-22T03:00:16;18.80;;;3.40;;
70337;SDS011;57757;53.198;19.646;2023-12-22T03:02:42;13.30;;;2.40;;
70337;SDS011;57757;53.198;19.646;2023-12-22T03:05:08;16.50;;;2.50;;
70337;SDS011;57757;53.198;19.646;2023-12-22T03:07:35;12.80;;;2.40;;
70337;SDS011;57757;53.198;19.646;2023-12-22T03:10:01;14.20;;;2.30;;
70337;SDS011;57757;53.198;19.646;2023-12-22T03:12:27;15.80;;;2.30;;
70337;SDS011;57757;53.198;19.646;2023-12-22T03:14:54;17.90;;;3.00;;
70337;SDS011;57757;53.198;19.646;2023-12-22T03:17:20;11.70;;;1.90;;
70337;SDS011;57757;53.198;19.646;2023-12-22T03:19:46;12.40;;;1.90;;
70337;SDS011;57757;53.198;19.646;2023-12-22T03:22:12;14.30;;;2.40;;
70337;SDS011;57757;53.198;19.646;2023-12-22T03:24:38;12.20;;;2.10;;
70337;SDS011;57757;53.198;19.646;2023-12-22T03:27:04;18.10;;;2.70;;
70337;SDS011;57757;53.198;19.646;2023-12-22T03:29:30;15.40;;;2.30;;
70337;SDS011;57757;53.198;19.646;2023-12-22T03:31:57;18.20;;;2.80;;
70337;SDS011;57757;53.198;19.646;2023-12-22T03:34:23;19.30;;;2.80;;
70337;SDS011;57757;53.198;19.646;2023-12-22T03:36:49;17.40;;;3.00;;
70337;SDS011;57757;53.198;19.646;2023-12-22T03:39:16;14.00;;;3.30;;
70337;SDS011;57757;53.198;19.646;2023-12-22T03:41:42;17.40;;;2.90;;
70337;SDS011;57757;53.198;19.646;2023-12-22T03:44:08;19.20;;;3.50;;
70337;SDS011;57757;53.198;19.646;2023-12-22T03:46:34;14.60;;;2.50;;
70337;SDS011;57757;53.198;19.646;2023-12-22T03:49:01;18.10;;;2.70;;
70337;SDS011;57757;53.198;19.646;2023-12-22T03:51:27;19.70;;;2.90;;
70337;SDS011;57757;53.198;19.646;2023-12-22T03:53:53;15.50;;;2.70;;
70337;SDS011;57757;53.198;19.646;2023-12-22T03:56:19;14.20;;;2.90;;
70337;SDS011;57757;53.198;19.646;2023-12-22T03:58:45;15.40;;;3.20;;
70337;SDS011;57757;53.198;19.646;2023-12-22T04:01:13;9.90;;;2.10;;
70337;SDS011;57757;53.198;19.646;2023-12-22T04:03:40;20.00;;;3.00;;
70337;SDS011;57757;53.198;19.646;2023-12-22T04:06:06;15.10;;;3.60;;
70337;SDS011;57757;53.198;19.646;2023-12-22T04:08:33;15.40;;;2.60;;
70337;SDS011;57757;53.198;19.646;2023-12-22T04:10:59;19.40;;;2.70;;
70337;SDS011;57757;53.198;19.646;2023-12-22T04:13:25;16.90;;;2.90;;
70337;SDS011;57757;53.198;19.646;2023-12-22T04:15:51;21.40;;;3.40;;
70337;SDS011;57757;53.198;19.646;2023-12-22T04:18:18;15.50;;;2.60;;
70337;SDS011;57757;53.198;19.646;2023-12-22T04:20:44;14.00;;;2.70;;
70337;SDS011;57757;53.198;19.646;2023-12-22T04:23:10;16.50;;;3.00;;
70337;SDS011;57757;53.198;19.646;2023-12-22T04:25:36;18.70;;;3.30;;
70337;SDS011;57757;53.198;19.646;2023-12-22T04:28:03;19.80;;;3.00;;
70337;SDS011;57757;53.198;19.646;2023-12-22T04:30:29;18.50;;;3.00;;
70337;SDS011;57757;53.198;19.646;2023-12-22T04:32:59;23.40;;;3.70;;
70337;SDS011;57757;53.198;19.646;2023-12-22T04:35:26;24.50;;;3.20;;
70337;SDS011;57757;53.198;19.646;2023-12-22T04:37:52;20.20;;;3.20;;
70337;SDS011;57757;53.198;19.646;2023-12-22T04:40:18;16.20;;;3.10;;
70337;SDS011;57757;53.198;19.646;2023-12-22T04:42:45;17.80;;;2.80;;
70337;SDS011;57757;53.198;19.646;2023-12-22T04:45:11;19.00;;;2.70;;
70337;SDS011;57757;53.198;19.646;2023-12-22T04:47:37;15.50;;;2.70;;
70337;SDS011;57757;53.198;19.646;2023-12-22T04:50:04;18.60;;;4.20;;
70337;SDS011;57757;53.198;19.646;2023-12-22T04:52:30;21.90;;;4.10;;
70337;SDS011;57757;53.198;19.646;2023-12-22T04:54:56;23.90;;;4.10;;
70337;SDS011;57757;53.198;19.646;2023-12-22T04:57:22;18.50;;;3.20;;
70337;SDS011;57757;53.198;19.646;2023-12-22T04:59:49;20.10;;;3.40;;
70337;SDS011;57757;53.198;19.646;2023-12-22T05:02:15;20.70;;;2.80;;
70337;SDS011;57757;53.198;19.646;2023-12-22T05:04:41;24.10;;;3.30;;
70337;SDS011;57757;53.198;19.646;2023-12-22T05:07:08;19.10;;;2.80;;
70337;SDS011;57757;53.198;19.646;2023-12-22T05:09:35;20.20;;;2.70;;
70337;SDS011;57757;53.198;19.646;2023-12-22T05:12:02;18.60;;;3.20;;
70337;SDS011;57757;53.198;19.646;2023-12-22T05:14:28;12.70;;;2.30;;
70337;SDS011;57757;53.198;19.646;2023-12-22T05:16:54;17.30;;;3.00;;
70337;SDS011;57757;53.198;19.646;2023-12-22T05:19:22;16.90;;;3.20;;
70337;SDS011;57757;53.198;19.646;2023-12-22T05:21:48;13.30;;;2.40;;
70337;SDS011;57757;53.198;19.646;2023-12-22T05:24:21;14.30;;;2.80;;
70337;SDS011;57757;53.198;19.646;2023-12-22T05:26:48;10.50;;;2.10;;
70337;SDS011;57757;53.198;19.646;2023-12-22T05:29:14;23.10;;;4.70;;
70337;SDS011;57757;53.198;19.646;2023-12-22T05:31:40;13.80;;;3.90;;
70337;SDS011;57757;53.198;19.646;2023-12-22T05:34:06;13.40;;;2.50;;
70337;SDS011;57757;53.198;19.646;2023-12-22T05:36:36;15.30;;;3.30;;
70337;SDS011;57757;53.198;19.646;2023-12-22T05:39:02;14.40;;;3.20;;
70337;SDS011;57757;53.198;19.646;2023-12-22T05:41:28;19.00;;;3.60;;
70337;SDS011;57757;53.198;19.646;2023-12-22T05:43:55;24.20;;;6.10;;
70337;SDS011;57757;53.198;19.646;2023-12-22T05:46:21;20.40;;;3.60;;
70337;SDS011;57757;53.198;19.646;2023-12-22T05:48:47;18.30;;;2.90;;
70337;SDS011;57757;53.198;19.646;2023-12-22T05:51:13;18.70;;;3.20;;
70337;SDS011;57757;53.198;19.646;2023-12-22T05:53:40;13.80;;;2.10;;
70337;SDS011;57757;53.198;19.646;2023-12-22T05:58:49;17.40;;;2.80;;
70337;SDS011;57757;53.198;19.646;2023-12-22T06:01:16;14.90;;;2.60;;
70337;SDS011;57757;53.198;19.646;2023-12-22T06:03:44;16.50;;;2.30;;
70337;SDS011;57757;53.198;19.646;2023-12-22T06:06:12;15.90;;;2.40;;
70337;SDS011;57757;53.198;19.646;2023-12-22T06:08:38;15.40;;;2.40;;
70337;SDS011;57757;53.198;19.646;2023-12-22T06:11:04;13.50;;;1.90;;
70337;SDS011;57757;53.198;19.646;2023-12-22T06:13:31;22.30;;;3.70;;
70337;SDS011;57757;53.198;19.646;2023-12-22T06:15:57;17.30;;;2.40;;
70337;SDS011;57757;53.198;19.646;2023-12-22T06:18:23;19.50;;;4.60;;
70337;SDS011;57757;53.198;19.646;2023-12-22T06:20:50;21.20;;;5.10;;
70337;SDS011;57757;53.198;19.646;2023-12-22T06:23:16;29.00;;;7.20;;
70337;SDS011;57757;53.198;19.646;2023-12-22T06:25:43;15.30;;;2.90;;
70337;SDS011;57757;53.198;19.646;2023-12-22T06:28:09;24.00;;;4.80;;
70337;SDS011;57757;53.198;19.646;2023-12-22T06:30:35;19.80;;;3.90;;
70337;SDS011;57757;53.198;19.646;2023-12-22T06:33:02;21.70;;;4.10;;
70337;SDS011;57757;53.198;19.646;2023-12-22T06:35:29;28.20;;;4.30;;
70337;SDS011;57757;53.198;19.646;2023-12-22T06:37:56;21.30;;;3.10;;
70337;SDS011;57757;53.198;19.646;2023-12-22T06:40:27;17.10;;;2.70;;
70337;SDS011;57757;53.198;19.646;2023-12-22T06:42:53;16.20;;;2.70;;
70337;SDS011;57757;53.198;19.646;2023-12-22T06:45:20;16.30;;;3.10;;
70337;SDS011;57757;53.198;19.646;2023-12-22T06:47:46;14.60;;;3.20;;
70337;SDS011;57757;53.198;19.646;2023-12-22T06:50:13;17.80;;;2.70;;
70337;SDS011;57757;53.198;19.646;2023-12-22T06:52:42;14.60;;;2.60;;
70337;SDS011;57757;53.198;19.646;2023-12-22T06:55:12;13.20;;;2.90;;
70337;SDS011;57757;53.198;19.646;2023-12-22T06:57:39;15.40;;;2.80;;
70337;SDS011;57757;53.198;19.646;2023-12-22T07:00:07;16.30;;;4.00;;
70337;SDS011;57757;53.198;19.646;2023-12-22T07:02:34;15.60;;;3.10;;
70337;SDS011;57757;53.198;19.646;2023-12-22T07:07:54;15.50;;;3.00;;
70337;SDS011;57757;53.198;19.646;2023-12-22T07:10:24;17.00;;;2.90;;
70337;SDS011;57757;53.198;19.646;2023-12-22T07:12:50;21.90;;;3.90;;
70337;SDS011;57757;53.198;19.646;2023-12-22T07:15:17;15.90;;;3.30;;
70337;SDS011;57757;53.198;19.646;2023-12-22T07:17:43;16.00;;;3.70;;
70337;SDS011;57757;53.198;19.646;2023-12-22T07:20:13;12.40;;;2.50;;
70337;SDS011;57757;53.198;19.646;2023-12-22T07:22:39;22.50;;;6.30;;
70337;SDS011;57757;53.198;19.646;2023-12-22T07:25:06;20.70;;;4.40;;
70337;SDS011;57757;53.198;19.646;2023-12-22T07:27:34;20.20;;;4.10;;
70337;SDS011;57757;53.198;19.646;2023-12-22T07:30:00;21.00;;;4.40;;
70337;SDS011;57757;53.198;19.646;2023-12-22T07:32:26;16.70;;;3.50;;
70337;SDS011;57757;53.198;19.646;2023-12-22T07:34:52;16.00;;;2.60;;
70337;SDS011;57757;53.198;19.646;2023-12-22T07:37:19;14.10;;;2.30;;
70337;SDS011;57757;53.198;19.646;2023-12-22T07:39:45;15.80;;;2.30;;
70337;SDS011;57757;53.198;19.646;2023-12-22T07:42:12;20.60;;;5.00;;
70337;SDS011;57757;53.198;19.646;2023-12-22T07:44:40;16.30;;;3.30;;
70337;SDS011;57757;53.198;19.646;2023-12-22T07:47:07;21.60;;;3.60;;
70337;SDS011;57757;53.198;19.646;2023-12-22T07:49:35;18.10;;;4.30;;
70337;SDS011;57757;53.198;19.646;2023-12-22T07:52:02;23.30;;;4.80;;
70337;SDS011;57757;53.198;19.646;2023-12-22T07:54:30;16.20;;;3.60;;
70337;SDS011;57757;53.198;19.646;2023-12-22T07:56:56;18.40;;;5.10;;
70337;SDS011;57757;53.198;19.646;2023-12-22T07:59:22;14.80;;;3.50;;
70337;SDS011;57757;53.198;19.646;2023-12-22T08:01:58;15.50;;;2.70;;
70337;SDS011;57757;53.198;19.646;2023-12-22T08:04:24;14.50;;;3.00;;
70337;SDS011;57757;53.198;19.646;2023-12-22T08:06:55;15.90;;;3.60;;
70337;SDS011;57757;53.198;19.646;2023-12-22T08:09:21;13.00;;;2.20;;
70337;SDS011;57757;53.198;19.646;2023-12-22T08:11:49;16.20;;;2.50;;
70337;SDS011;57757;53.198;19.646;2023-12-22T08:14:19;11.90;;;2.00;;
70337;SDS011;57757;53.198;19.646;2023-12-22T08:16:46;15.30;;;3.70;;
70337;SDS011;57757;53.198;19.646;2023-12-22T08:19:12;18.50;;;3.10;;
70337;SDS011;57757;53.198;19.646;2023-12-22T08:21:39;18.90;;;2.40;;
70337;SDS011;57757;53.198;19.646;2023-12-22T08:24:12;19.30;;;5.60;;
70337;SDS011;57757;53.198;19.646;2023-12-22T08:26:50;17.20;;;3.90;;
70337;SDS011;57757;53.198;19.646;2023-12-22T08:29:17;16.10;;;3.60;;
70337;SDS011;57757;53.198;19.646;2023-12-22T08:31:45;13.00;;;2.10;;
70337;SDS011;57757;53.198;19.646;2023-12-22T08:34:12;17.70;;;1.90;;
70337;SDS011;57757;53.198;19.646;2023-12-22T08:36:38;13.30;;;2.40;;
70337;SDS011;57757;53.198;19.646;2023-12-22T08:39:05;11.00;;;2.10;;
70337;SDS011;57757;53.198;19.646;2023-12-22T08:41:32;9.60;;;2.10;;
70337;SDS011;57757;53.198;19.646;2023-12-22T08:44:02;10.40;;;2.30;;
70337;SDS011;57757;53.198;19.646;2023-12-22T08:46:30;24.30;;;1.90;;
70337;SDS011;57757;53.198;19.646;2023-12-22T08:48:57;12.20;;;2.70;;
70337;SDS011;57757;53.198;19.646;2023-12-22T08:51:25;14.00;;;2.50;;
70337;SDS011;57757;53.198;19.646;2023-12-22T08:53:53;17.50;;;3.50;;
70337;SDS011;57757;53.198;19.646;2023-12-22T08:56:21;14.50;;;2.90;;
70337;SDS011;57757;53.198;19.646;2023-12-22T08:58:48;11.60;;;2.10;;
70337;SDS011;57757;53.198;19.646;2023-12-22T09:01:18;15.50;;;3.40;;
70337;SDS011;57757;53.198;19.646;2023-12-22T09:03:44;14.40;;;2.60;;
70337;SDS011;57757;53.198;19.646;2023-12-22T09:06:16;14.60;;;3.30;;
70337;SDS011;57757;53.198;19.646;2023-12-22T09:08:43;14.10;;;2.60;;
70337;SDS011;57757;53.198;19.646;2023-12-22T09:11:14;21.70;;;4.30;;
70337;SDS011;57757;53.198;19.646;2023-12-22T09:13:42;17.00;;;3.50;;
70337;SDS011;57757;53.198;19.646;2023-12-22T09:16:09;12.80;;;3.00;;
70337;SDS011;57757;53.198;19.646;2023-12-22T09:18:35;13.70;;;2.80;;
70337;SDS011;57757;53.198;19.646;2023-12-22T09:21:02;18.70;;;3.20;;
70337;SDS011;57757;53.198;19.646;2023-12-22T09:23:29;16.30;;;3.40;;
70337;SDS011;57757;53.198;19.646;2023-12-22T09:25:55;24.70;;;4.70;;
70337;SDS011;57757;53.198;19.646;2023-12-22T09:28:22;14.80;;;3.40;;
70337;SDS011;57757;53.198;19.646;2023-12-22T09:30:48;13.30;;;2.90;;
70337;SDS011;57757;53.198;19.646;2023-12-22T09:33:15;13.90;;;2.40;;
70337;SDS011;57757;53.198;19.646;2023-12-22T09:35:42;10.90;;;2.30;;
70337;SDS011;57757;53.198;19.646;2023-12-22T09:38:10;14.10;;;2.50;;
70337;SDS011;57757;53.198;19.646;2023-12-22T09:40:38;14.80;;;3.00;;
70337;SDS011;57757;53.198;19.646;2023-12-22T09:43:11;19.80;;;4.30;;
70337;SDS011;57757;53.198;19.646;2023-12-22T09:45:43;15.10;;;3.90;;
70337;SDS011;57757;53.198;19.646;2023-12-22T09:48:15;13.50;;;2.30;;
70337;SDS011;57757;53.198;19.646;2023-12-22T09:50:54;13.80;;;2.80;;
70337;SDS011;57757;53.198;19.646;2023-12-22T09:53:21;13.20;;;3.20;;
70337;SDS011;57757;53.198;19.646;2023-12-22T09:55:49;16.50;;;3.20;;
70337;SDS011;57757;53.198;19.646;2023-12-22T09:58:19;12.80;;;2.70;;
70337;SDS011;57757;53.198;19.646;2023-12-22T10:00:46;13.40;;;3.40;;
70337;SDS011;57757;53.198;19.646;2023-12-22T10:03:14;16.80;;;7.70;;
70337;SDS011;57757;53.198;19.646;2023-12-22T10:05:41;13.90;;;5.90;;
70337;SDS011;57757;53.198;19.646;2023-12-22T10:08:10;13.70;;;7.20;;
70337;SDS011;57757;53.198;19.646;2023-12-22T10:10:39;16.40;;;4.30;;
70337;SDS011;57757;53.198;19.646;2023-12-22T10:13:14;12.00;;;3.10;;
70337;SDS011;57757;53.198;19.646;2023-12-22T10:15:41;11.00;;;2.40;;
70337;SDS011;57757;53.198;19.646;2023-12-22T10:18:09;10.00;;;2.10;;
70337;SDS011;57757;53.198;19.646;2023-12-22T10:20:36;13.20;;;3.20;;
70337;SDS011;57757;53.198;19.646;2023-12-22T10:23:02;16.70;;;3.50;;
70337;SDS011;57757;53.198;19.646;2023-12-22T10:25:29;20.20;;;5.40;;
70337;SDS011;57757;53.198;19.646;2023-12-22T10:27:58;9.90;;;2.50;;
70337;SDS011;57757;53.198;19.646;2023-12-22T10:30:31;15.90;;;3.50;;
70337;SDS011;57757;53.198;19.646;2023-12-22T10:33:06;16.30;;;4.20;;
70337;SDS011;57757;53.198;19.646;2023-12-22T10:35:35;16.50;;;3.80;;
70337;SDS011;57757;53.198;19.646;2023-12-22T10:38:01;11.50;;;2.60;;
70337;SDS011;57757;53.198;19.646;2023-12-22T10:40:30;16.50;;;3.60;;
70337;SDS011;57757;53.198;19.646;2023-12-22T10:43:00;15.30;;;3.20;;
70337;SDS011;57757;53.198;19.646;2023-12-22T10:45:29;12.70;;;2.60;;
70337;SDS011;57757;53.198;19.646;2023-12-22T10:47:57;15.40;;;3.50;;
70337;SDS011;57757;53.198;19.646;2023-12-22T10:50:23;11.50;;;3.20;;
70337;SDS011;57757;53.198;19.646;2023-12-22T10:52:52;11.90;;;2.40;;
70337;SDS011;57757;53.198;19.646;2023-12-22T10:55:19;11.30;;;2.20;;
70337;SDS011;57757;53.198;19.646;2023-12-22T10:57:45;12.40;;;2.30;;
70337;SDS011;57757;53.198;19.646;2023-12-22T11:00:13;12.50;;;2.30;;
70337;SDS011;57757;53.198;19.646;2023-12-22T11:02:43;15.00;;;4.00;;
70337;SDS011;57757;53.198;19.646;2023-12-22T11:05:14;16.60;;;4.40;;
70337;SDS011;57757;53.198;19.646;2023-12-22T11:07:45;12.00;;;4.10;;
70337;SDS011;57757;53.198;19.646;2023-12-22T11:10:20;12.00;;;3.10;;
70337;SDS011;57757;53.198;19.646;2023-12-22T11:12:52;10.90;;;2.80;;
70337;SDS011;57757;53.198;19.646;2023-12-22T11:15:18;8.00;;;2.10;;
70337;SDS011;57757;53.198;19.646;2023-12-22T11:17:48;15.60;;;4.10;;
70337;SDS011;57757;53.198;19.646;2023-12-22T11:20:15;11.00;;;3.50;;
70337;SDS011;57757;53.198;19.646;2023-12-22T11:22:46;17.80;;;6.20;;
70337;SDS011;57757;53.198;19.646;2023-12-22T11:25:17;13.40;;;4.70;;
70337;SDS011;57757;53.198;19.646;2023-12-22T11:27:48;11.00;;;2.80;;
70337;SDS011;57757;53.198;19.646;2023-12-22T11:30:20;13.00;;;4.00;;
70337;SDS011;57757;53.198;19.646;2023-12-22T11:32:50;10.90;;;2.60;;
70337;SDS011;57757;53.198;19.646;2023-12-22T11:35:19;10.90;;;2.80;;
70337;SDS011;57757;53.198;19.646;2023-12-22T11:37:57;9.20;;;2.60;;
70337;SDS011;57757;53.198;19.646;2023-12-22T11:40:27;13.80;;;3.80;;
70337;SDS011;57757;53.198;19.646;2023-12-22T11:42:53;12.80;;;3.10;;
70337;SDS011;57757;53.198;19.646;2023-12-22T11:45:20;21.80;;;7.10;;
70337;SDS011;57757;53.198;19.646;2023-12-22T11:47:48;12.40;;;3.40;;
70337;SDS011;57757;53.198;19.646;2023-12-22T11:53:17;18.30;;;5.70;;
70337;SDS011;57757;53.198;19.646;2023-12-22T12:01:02;12.30;;;3.10;;
70337;SDS011;57757;53.198;19.646;2023-12-22T12:03:31;11.90;;;2.90;;
70337;SDS011;57757;53.198;19.646;2023-12-22T12:08:41;16.30;;;4.90;;
70337;SDS011;57757;53.198;19.646;2023-12-22T12:11:08;12.20;;;3.60;;
70337;SDS011;57757;53.198;19.646;2023-12-22T12:13:35;13.40;;;4.60;;
70337;SDS011;57757;53.198;19.646;2023-12-22T12:16:09;15.00;;;5.00;;
70337;SDS011;57757;53.198;19.646;2023-12-22T12:18:37;16.60;;;4.90;;
70337;SDS011;57757;53.198;19.646;2023-12-22T12:21:03;15.90;;;5.70;;
70337;SDS011;57757;53.198;19.646;2023-12-22T12:23:32;14.80;;;3.90;;
70337;SDS011;57757;53.198;19.646;2023-12-22T12:25:59;14.30;;;4.40;;
70337;SDS011;57757;53.198;19.646;2023-12-22T12:28:26;15.30;;;5.90;;
70337;SDS011;57757;53.198;19.646;2023-12-22T12:30:57;17.10;;;5.40;;
70337;SDS011;57757;53.198;19.646;2023-12-22T12:33:31;19.20;;;5.00;;
70337;SDS011;57757;53.198;19.646;2023-12-22T12:36:00;17.30;;;4.30;;
70337;SDS011;57757;53.198;19.646;2023-12-22T12:38:36;12.60;;;4.10;;
70337;SDS011;57757;53.198;19.646;2023-12-22T12:41:04;16.40;;;5.50;;
70337;SDS011;57757;53.198;19.646;2023-12-22T12:43:32;14.60;;;4.50;;
70337;SDS011;57757;53.198;19.646;2023-12-22T12:46:05;28.00;;;8.80;;
70337;SDS011;57757;53.198;19.646;2023-12-22T12:48:32;13.80;;;3.70;;
70337;SDS011;57757;53.198;19.646;2023-12-22T12:51:02;10.30;;;3.20;;
70337;SDS011;57757;53.198;19.646;2023-12-22T12:53:33;12.20;;;4.00;;
70337;SDS011;57757;53.198;19.646;2023-12-22T12:56:00;16.80;;;5.00;;
70337;SDS011;57757;53.198;19.646;2023-12-22T12:58:28;13.80;;;3.90;;
70337;SDS011;57757;53.198;19.646;2023-12-22T13:01:03;13.20;;;4.40;;
70337;SDS011;57757;53.198;19.646;2023-12-22T13:03:55;12.00;;;4.10;;
70337;SDS011;57757;53.198;19.646;2023-12-22T13:06:22;13.40;;;3.40;;
70337;SDS011;57757;53.198;19.646;2023-12-22T13:08:48;14.50;;;4.80;;
70337;SDS011;57757;53.198;19.646;2023-12-22T13:13:48;12.40;;;3.90;;
70337;SDS011;57757;53.198;19.646;2023-12-22T13:16:19;11.60;;;3.90;;
70337;SDS011;57757;53.198;19.646;2023-12-22T13:18:47;12.00;;;3.70;;
70337;SDS011;57757;53.198;19.646;2023-12-22T13:21:14;11.80;;;4.50;;
70337;SDS011;57757;53.198;19.646;2023-12-22T13:23:41;10.90;;;3.80;;
70337;SDS011;57757;53.198;19.646;2023-12-22T13:26:17;9.10;;;3.60;;
70337;SDS011;57757;53.198;19.646;2023-12-22T13:28:45;13.20;;;4.20;;
70337;SDS011;57757;53.198;19.646;2023-12-22T13:31:14;10.00;;;4.30;;
70337;SDS011;57757;53.198;19.646;2023-12-22T13:33:44;17.70;;;5.90;;
70337;SDS011;57757;53.198;19.646;2023-12-22T13:36:11;13.80;;;5.40;;
70337;SDS011;57757;53.198;19.646;2023-12-22T13:38:38;11.30;;;3.80;;
70337;SDS011;57757;53.198;19.646;2023-12-22T13:41:06;12.00;;;3.80;;
70337;SDS011;57757;53.198;19.646;2023-12-22T13:43:34;12.10;;;4.10;;
70337;SDS011;57757;53.198;19.646;2023-12-22T13:46:01;10.20;;;4.00;;
70337;SDS011;57757;53.198;19.646;2023-12-22T13:48:27;19.50;;;6.80;;
70337;SDS011;57757;53.198;19.646;2023-12-22T13:50:58;18.30;;;6.80;;
70337;SDS011;57757;53.198;19.646;2023-12-22T13:53:26;13.80;;;5.40;;
70337;SDS011;57757;53.198;19.646;2023-12-22T13:55:56;14.50;;;6.50;;
70337;SDS011;57757;53.198;19.646;2023-12-22T13:58:27;14.70;;;6.40;;
70337;SDS011;57757;53.198;19.646;2023-12-22T14:00:54;17.30;;;4.80;;
70337;SDS011;57757;53.198;19.646;2023-12-22T14:03:21;14.70;;;5.30;;
70337;SDS011;57757;53.198;19.646;2023-12-22T14:05:48;18.30;;;6.20;;
70337;SDS011;57757;53.198;19.646;2023-12-22T14:08:16;16.80;;;4.90;;
70337;SDS011;57757;53.198;19.646;2023-12-22T14:10:46;17.70;;;6.20;;
70337;SDS011;57757;53.198;19.646;2023-12-22T14:13:14;17.00;;;5.70;;
70337;SDS011;57757;53.198;19.646;2023-12-22T14:15:42;13.70;;;5.30;;
70337;SDS011;57757;53.198;19.646;2023-12-22T14:18:12;30.50;;;8.10;;
70337;SDS011;57757;53.198;19.646;2023-12-22T14:20:38;27.60;;;8.40;;
70337;SDS011;57757;53.198;19.646;2023-12-22T14:23:05;18.50;;;6.10;;
70337;SDS011;57757;53.198;19.646;2023-12-22T14:25:33;19.10;;;5.70;;
70337;SDS011;57757;53.198;19.646;2023-12-22T14:28:01;24.00;;;7.20;;
70337;SDS011;57757;53.198;19.646;2023-12-22T14:30:27;13.90;;;5.00;;
70337;SDS011;57757;53.198;19.646;2023-12-22T14:32:54;29.70;;;8.80;;
70337;SDS011;57757;53.198;19.646;2023-12-22T14:35:21;22.40;;;7.00;;
70337;SDS011;57757;53.198;19.646;2023-12-22T14:37:48;23.30;;;7.50;;
70337;SDS011;57757;53.198;19.646;2023-12-22T14:40:15;24.80;;;9.20;;
70337;SDS011;57757;53.198;19.646;2023-12-22T14:42:41;15.90;;;5.30;;